CheckWX is a tool to help pilots better visualize weather data.  It is not intended as a substitute for an official pre-flight weather briefing.

21:17:36 UTC

PAGY METAR
Skagway Airport
Skagway, Alaska, USA
Current

25 mins ago

PAGY 122053Z AUTO 21015KT 10SM OVC055 16/10 A2996 RMK SLP145 T01560100 51004 TSNO VIA AUTODIAL
Observed
Jul-12 @ 20:53 UTC
Wind
  • 210° at 15 KTS
Visibility
10 SM
Flight Rules
VFR
Cloud Levels
  • Overcast at 5,500' AGL
Temperature
16°C / 61°F
Dewpoint
10°C / 50°F
Humidity
68%
Altimeter
29.96" Hg
Pressure
1014.52 hPa
Previous

1 hour ago

PAGY 121953Z AUTO 21011G22KT 10SM OVC060 14/11 A2996 RMK PK WND 20026/1919 SLP144 T01440106 TSNO VIA AUTODIAL
Observed
Jul-12 @ 19:53 UTC
Wind
  • 210° at 11 KTS
  • Gusting to 22 KTS
Visibility
10 SM
Flight Rules
VFR
Cloud Levels
  • Overcast at 6,000' AGL
Temperature
14°C / 57°F
Dewpoint
11°C / 52°F
Humidity
82%
Altimeter
29.96" Hg
Pressure
1014.52 hPa
Previous

2 hours ago

PAGY 121853Z AUTO 20016G23KT 10SM OVC055 14/10 A2995 RMK SLP142 T01440100 TSNO VIA AUTODIAL
Observed
Jul-12 @ 18:53 UTC
Wind
  • 200° at 16 KTS
  • Gusting to 23 KTS
Visibility
10 SM
Flight Rules
VFR
Cloud Levels
  • Overcast at 5,500' AGL
Temperature
14°C / 57°F
Dewpoint
10°C / 50°F
Humidity
77%
Altimeter
29.95" Hg
Pressure
1014.22 hPa